sensor_id;sensor_type;location;lat;lon;timestamp;temperature;humidity
10336;DHT22;5213;53.548;9.930;2023-07-30T00:01:12;16.50;1.00
10336;DHT22;5213;53.548;9.930;2023-07-30T00:03:37;16.50;99.90
10336;DHT22;5213;53.548;9.930;2023-07-30T00:06:03;16.50;99.90
10336;DHT22;5213;53.548;9.930;2023-07-30T00:08:29;16.50;27.20
10336;DHT22;5213;53.548;9.930;2023-07-30T00:10:56;16.50;1.00
10336;DHT22;5213;53.548;9.930;2023-07-30T00:13:23;16.50;1.00
10336;DHT22;5213;53.548;9.930;2023-07-30T00:15:49;16.50;1.00
10336;DHT22;5213;53.548;9.930;2023-07-30T00:18:15;16.40;99.90
10336;DHT22;5213;53.548;9.930;2023-07-30T00:20:41;16.40;99.90
10336;DHT22;5213;53.548;9.930;2023-07-30T00:23:07;16.40;99.90
10336;DHT22;5213;53.548;9.930;2023-07-30T00:25:32;16.30;99.90
10336;DHT22;5213;53.548;9.930;2023-07-30T00:27:58;16.30;99.90
10336;DHT22;5213;53.548;9.930;2023-07-30T00:30:24;16.40;99.90
10336;DHT22;5213;53.548;9.930;2023-07-30T00:32:50;16.30;99.90
10336;DHT22;5213;53.548;9.930;2023-07-30T00:35:16;16.20;52.80
10336;DHT22;5213;53.548;9.930;2023-07-30T00:37:41;16.30;80.30
10336;DHT22;5213;53.548;9.930;2023-07-30T00:40:07;16.30;23.40
10336;DHT22;5213;53.548;9.930;2023-07-30T00:42:33;16.30;1.00
10336;DHT22;5213;53.548;9.930;2023-07-30T00:44:59;16.40;1.00
10336;DHT22;5213;53.548;9.930;2023-07-30T00:47:25;16.30;1.00
10336;DHT22;5213;53.548;9.930;2023-07-30T00:49:51;16.40;1.00
10336;DHT22;5213;53.548;9.930;2023-07-30T00:52:18;16.40;1.00
10336;DHT22;5213;53.548;9.930;2023-07-30T00:54:46;16.30;1.00
10336;DHT22;5213;53.548;9.930;2023-07-30T00:57:13;16.30;1.00
10336;DHT22;5213;53.548;9.930;2023-07-30T00:59:39;16.40;1.00
10336;DHT22;5213;53.548;9.930;2023-07-30T01:02:05;16.40;1.00
10336;DHT22;5213;53.548;9.930;2023-07-30T01:04:30;16.40;1.00
10336;DHT22;5213;53.548;9.930;2023-07-30T01:06:56;16.40;1.00
10336;DHT22;5213;53.548;9.930;2023-07-30T01:09:22;16.30;1.00
10336;DHT22;5213;53.548;9.930;2023-07-30T01:11:48;16.30;1.00
10336;DHT22;5213;53.548;9.930;2023-07-30T01:14:14;16.30;1.00
10336;DHT22;5213;53.548;9.930;2023-07-30T01:16:41;16.20;1.00
10336;DHT22;5213;53.548;9.930;2023-07-30T01:19:06;16.00;1.00
10336;DHT22;5213;53.548;9.930;2023-07-30T01:21:36;16.00;1.00
10336;DHT22;5213;53.548;9.930;2023-07-30T01:24:02;15.90;1.00
10336;DHT22;5213;53.548;9.930;2023-07-30T01:26:34;15.90;33.40
10336;DHT22;5213;53.548;9.930;2023-07-30T01:29:09;15.80;90.80
10336;DHT22;5213;53.548;9.930;2023-07-30T01:31:38;15.80;99.90
10336;DHT22;5213;53.548;9.930;2023-07-30T01:34:06;15.70;99.90
10336;DHT22;5213;53.548;9.930;2023-07-30T01:36:33;15.70;99.90
10336;DHT22;5213;53.548;9.930;2023-07-30T01:39:00;15.70;99.90
10336;DHT22;5213;53.548;9.930;2023-07-30T01:41:27;15.80;99.90
10336;DHT22;5213;53.548;9.930;2023-07-30T01:43:53;15.70;99.90
10336;DHT22;5213;53.548;9.930;2023-07-30T01:46:19;15.70;99.90
10336;DHT22;5213;53.548;9.930;2023-07-30T01:48:45;15.60;99.90
10336;DHT22;5213;53.548;9.930;2023-07-30T01:51:10;15.60;99.90
10336;DHT22;5213;53.548;9.930;2023-07-30T01:53:36;15.60;99.90
10336;DHT22;5213;53.548;9.930;2023-07-30T01:56:01;15.60;99.90
10336;DHT22;5213;53.548;9.930;2023-07-30T01:58:27;15.60;1.00
10336;DHT22;5213;53.548;9.930;2023-07-30T02:00:53;15.60;1.00
10336;DHT22;5213;53.548;9.930;2023-07-30T02:03:18;15.60;1.00
10336;DHT22;5213;53.548;9.930;2023-07-30T02:05:44;15.60;1.00
10336;DHT22;5213;53.548;9.930;2023-07-30T02:08:10;15.60;1.00
10336;DHT22;5213;53.548;9.930;2023-07-30T02:10:35;15.50;1.00
10336;DHT22;5213;53.548;9.930;2023-07-30T02:13:01;15.50;1.00
10336;DHT22;5213;53.548;9.930;2023-07-30T02:15:26;15.50;1.00
10336;DHT22;5213;53.548;9.930;2023-07-30T02:17:52;15.50;50.90
10336;DHT22;5213;53.548;9.930;2023-07-30T02:20:18;15.40;71.90
10336;DHT22;5213;53.548;9.930;2023-07-30T02:22:43;15.40;99.90
10336;DHT22;5213;53.548;9.930;2023-07-30T02:25:09;15.30;99.90
10336;DHT22;5213;53.548;9.930;2023-07-30T02:27:34;15.30;99.90
10336;DHT22;5213;53.548;9.930;2023-07-30T02:30:00;15.30;1.00
10336;DHT22;5213;53.548;9.930;2023-07-30T02:32:26;15.20;1.00
10336;DHT22;5213;53.548;9.930;2023-07-30T02:34:51;15.20;99.90
10336;DHT22;5213;53.548;9.930;2023-07-30T02:37:17;15.20;99.90
10336;DHT22;5213;53.548;9.930;2023-07-30T02:39:43;15.20;1.00
10336;DHT22;5213;53.548;9.930;2023-07-30T02:42:08;15.20;14.30
10336;DHT22;5213;53.548;9.930;2023-07-30T02:44:34;15.20;99.90
10336;DHT22;5213;53.548;9.930;2023-07-30T02:46:59;15.20;1.00
10336;DHT22;5213;53.548;9.930;2023-07-30T02:49:25;15.10;1.00
10336;DHT22;5213;53.548;9.930;2023-07-30T02:51:51;15.20;99.90
10336;DHT22;5213;53.548;9.930;2023-07-30T02:54:16;15.20;99.90
10336;DHT22;5213;53.548;9.930;2023-07-30T02:56:43;15.20;99.90
10336;DHT22;5213;53.548;9.930;2023-07-30T02:59:08;15.20;99.90
10336;DHT22;5213;53.548;9.930;2023-07-30T03:01:34;15.20;99.90
10336;DHT22;5213;53.548;9.930;2023-07-30T03:04:00;15.20;99.90
10336;DHT22;5213;53.548;9.930;2023-07-30T03:06:25;15.10;99.90
10336;DHT22;5213;53.548;9.930;2023-07-30T03:08:51;15.10;99.90
10336;DHT22;5213;53.548;9.930;2023-07-30T03:11:16;15.10;1.00
10336;DHT22;5213;53.548;9.930;2023-07-30T03:13:42;15.10;1.00
10336;DHT22;5213;53.548;9.930;2023-07-30T03:16:08;15.00;1.00
10336;DHT22;5213;53.548;9.930;2023-07-30T03:18:33;15.00;1.00
10336;DHT22;5213;53.548;9.930;2023-07-30T03:21:00;15.00;1.00
10336;DHT22;5213;53.548;9.930;2023-07-30T03:23:26;15.00;1.00
10336;DHT22;5213;53.548;9.930;2023-07-30T03:25:52;15.00;1.00
10336;DHT22;5213;53.548;9.930;2023-07-30T03:28:17;15.00;1.00
10336;DHT22;5213;53.548;9.930;2023-07-30T03:30:43;14.90;1.00
10336;DHT22;5213;53.548;9.930;2023-07-30T03:33:08;14.90;1.00
10336;DHT22;5213;53.548;9.930;2023-07-30T03:35:34;14.90;1.00
10336;DHT22;5213;53.548;9.930;2023-07-30T03:38:00;14.80;1.00
10336;DHT22;5213;53.548;9.930;2023-07-30T03:40:25;14.90;1.00
10336;DHT22;5213;53.548;9.930;2023-07-30T03:42:51;14.80;24.80
10336;DHT22;5213;53.548;9.930;2023-07-30T03:45:17;14.80;54.20
10336;DHT22;5213;53.548;9.930;2023-07-30T03:47:43;14.80;85.40
10336;DHT22;5213;53.548;9.930;2023-07-30T03:50:08;14.80;99.90
10336;DHT22;5213;53.548;9.930;2023-07-30T03:52:34;14.80;99.90
10336;DHT22;5213;53.548;9.930;2023-07-30T03:55:00;14.80;99.90
10336;DHT22;5213;53.548;9.930;2023-07-30T03:57:26;15.00;99.90
10336;DHT22;5213;53.548;9.930;2023-07-30T03:59:51;14.90;99.90
10336;DHT22;5213;53.548;9.930;2023-07-30T04:02:17;14.80;99.90
10336;DHT22;5213;53.548;9.930;2023-07-30T04:04:43;14.80;99.90
10336;DHT22;5213;53.548;9.930;2023-07-30T04:07:13;14.90;99.90
10336;DHT22;5213;53.548;9.930;2023-07-30T04:09:39;14.80;99.90
10336;DHT22;5213;53.548;9.930;2023-07-30T04:12:05;14.90;99.90
10336;DHT22;5213;53.548;9.930;2023-07-30T04:14:31;14.90;99.90
10336;DHT22;5213;53.548;9.930;2023-07-30T04:16:56;14.90;99.90
10336;DHT22;5213;53.548;9.930;2023-07-30T04:19:22;15.00;99.90
10336;DHT22;5213;53.548;9.930;2023-07-30T04:21:48;15.00;99.90
10336;DHT22;5213;53.548;9.930;2023-07-30T04:24:13;15.20;99.90
10336;DHT22;5213;53.548;9.930;2023-07-30T04:26:39;15.10;99.90
10336;DHT22;5213;53.548;9.930;2023-07-30T04:29:05;15.10;99.90
10336;DHT22;5213;53.548;9.930;2023-07-30T04:31:31;15.20;76.00
10336;DHT22;5213;53.548;9.930;2023-07-30T04:33:58;15.20;1.00
10336;DHT22;5213;53.548;9.930;2023-07-30T04:36:23;15.20;99.90
10336;DHT22;5213;53.548;9.930;2023-07-30T04:38:49;15.30;1.00
10336;DHT22;5213;53.548;9.930;2023-07-30T04:41:15;15.40;19.00
10336;DHT22;5213;53.548;9.930;2023-07-30T04:43:40;15.40;1.00
10336;DHT22;5213;53.548;9.930;2023-07-30T04:46:06;15.40;99.90
10336;DHT22;5213;53.548;9.930;2023-07-30T04:48:32;15.40;1.00
10336;DHT22;5213;53.548;9.930;2023-07-30T04:50:57;15.50;1.00
10336;DHT22;5213;53.548;9.930;2023-07-30T04:53:23;15.60;1.00
10336;DHT22;5213;53.548;9.930;2023-07-30T04:55:52;15.70;99.90
10336;DHT22;5213;53.548;9.930;2023-07-30T04:58:19;15.90;99.90
10336;DHT22;5213;53.548;9.930;2023-07-30T05:00:45;16.10;23.90
10336;DHT22;5213;53.548;9.930;2023-07-30T05:03:11;16.10;1.00
10336;DHT22;5213;53.548;9.930;2023-07-30T05:05:36;16.20;1.00
10336;DHT22;5213;53.548;9.930;2023-07-30T05:08:02;16.30;1.00
10336;DHT22;5213;53.548;9.930;2023-07-30T05:10:27;16.50;1.00
10336;DHT22;5213;53.548;9.930;2023-07-30T05:12:53;16.50;1.00
10336;DHT22;5213;53.548;9.930;2023-07-30T05:15:19;16.60;1.00
10336;DHT22;5213;53.548;9.930;2023-07-30T05:17:44;16.50;99.90
10336;DHT22;5213;53.548;9.930;2023-07-30T05:20:10;16.60;99.90
10336;DHT22;5213;53.548;9.930;2023-07-30T05:22:36;16.60;99.90
10336;DHT22;5213;53.548;9.930;2023-07-30T05:25:01;16.50;99.90
10336;DHT22;5213;53.548;9.930;2023-07-30T05:27:27;16.50;99.90
10336;DHT22;5213;53.548;9.930;2023-07-30T05:29:54;16.50;99.90
10336;DHT22;5213;53.548;9.930;2023-07-30T05:32:20;16.40;99.90
10336;DHT22;5213;53.548;9.930;2023-07-30T05:34:45;16.50;99.90
10336;DHT22;5213;53.548;9.930;2023-07-30T05:37:11;16.50;99.90
10336;DHT22;5213;53.548;9.930;2023-07-30T05:39:37;16.60;99.90
10336;DHT22;5213;53.548;9.930;2023-07-30T05:42:03;16.70;99.90
10336;DHT22;5213;53.548;9.930;2023-07-30T05:44:29;16.80;96.20
10336;DHT22;5213;53.548;9.930;2023-07-30T05:46:54;16.80;99.00
10336;DHT22;5213;53.548;9.930;2023-07-30T05:49:20;16.70;49.80
10336;DHT22;5213;53.548;9.930;2023-07-30T05:51:46;16.80;24.00
10336;DHT22;5213;53.548;9.930;2023-07-30T05:54:12;16.90;26.50
10336;DHT22;5213;53.548;9.930;2023-07-30T05:56:38;16.80;1.00
10336;DHT22;5213;53.548;9.930;2023-07-30T05:59:03;16.90;1.00
10336;DHT22;5213;53.548;9.930;2023-07-30T06:01:29;16.80;1.00
10336;DHT22;5213;53.548;9.930;2023-07-30T06:03:55;16.90;1.00
10336;DHT22;5213;53.548;9.930;2023-07-30T06:06:20;16.90;1.00
10336;DHT22;5213;53.548;9.930;2023-07-30T06:08:53;16.90;1.00
10336;DHT22;5213;53.548;9.930;2023-07-30T06:11:19;17.00;1.00
10336;DHT22;5213;53.548;9.930;2023-07-30T06:13:45;17.10;1.00
10336;DHT22;5213;53.548;9.930;2023-07-30T06:16:10;17.20;1.00
10336;DHT22;5213;53.548;9.930;2023-07-30T06:18:36;17.10;1.00
10336;DHT22;5213;53.548;9.930;2023-07-30T06:21:01;17.20;1.00
10336;DHT22;5213;53.548;9.930;2023-07-30T06:23:27;17.50;1.00
10336;DHT22;5213;53.548;9.930;2023-07-30T06:25:53;17.70;1.00
10336;DHT22;5213;53.548;9.930;2023-07-30T06:28:18;17.80;1.00
10336;DHT22;5213;53.548;9.930;2023-07-30T06:30:44;17.90;1.00
10336;DHT22;5213;53.548;9.930;2023-07-30T06:33:09;18.10;1.00
10336;DHT22;5213;53.548;9.930;2023-07-30T06:35:35;18.10;1.00
10336;DHT22;5213;53.548;9.930;2023-07-30T06:38:01;18.20;1.00
10336;DHT22;5213;53.548;9.930;2023-07-30T06:40:26;18.50;1.00
10336;DHT22;5213;53.548;9.930;2023-07-30T06:42:52;18.60;1.00
10336;DHT22;5213;53.548;9.930;2023-07-30T06:45:18;18.70;1.00
10336;DHT22;5213;53.548;9.930;2023-07-30T06:47:44;18.60;1.00
10336;DHT22;5213;53.548;9.930;2023-07-30T06:50:09;18.60;1.00
10336;DHT22;5213;53.548;9.930;2023-07-30T06:52:36;18.50;1.00
10336;DHT22;5213;53.548;9.930;2023-07-30T06:55:02;18.70;1.00
10336;DHT22;5213;53.548;9.930;2023-07-30T06:57:29;18.60;1.00
10336;DHT22;5213;53.548;9.930;2023-07-30T06:59:55;18.60;1.00
10336;DHT22;5213;53.548;9.930;2023-07-30T07:02:20;18.80;1.00
10336;DHT22;5213;53.548;9.930;2023-07-30T07:04:46;18.90;99.90
10336;DHT22;5213;53.548;9.930;2023-07-30T07:07:11;18.90;99.90
10336;DHT22;5213;53.548;9.930;2023-07-30T07:09:37;18.90;99.90
10336;DHT22;5213;53.548;9.930;2023-07-30T07:12:03;18.90;99.90
10336;DHT22;5213;53.548;9.930;2023-07-30T07:14:29;18.90;99.90
10336;DHT22;5213;53.548;9.930;2023-07-30T07:16:54;19.00;99.90
10336;DHT22;5213;53.548;9.930;2023-07-30T07:19:23;19.20;99.90
10336;DHT22;5213;53.548;9.930;2023-07-30T07:21:48;19.20;99.90
10336;DHT22;5213;53.548;9.930;2023-07-30T07:24:14;19.30;99.90
10336;DHT22;5213;53.548;9.930;2023-07-30T07:26:40;19.20;99.90
10336;DHT22;5213;53.548;9.930;2023-07-30T07:29:06;19.40;99.90
10336;DHT22;5213;53.548;9.930;2023-07-30T07:31:31;19.70;99.90
10336;DHT22;5213;53.548;9.930;2023-07-30T07:33:57;19.80;99.90
10336;DHT22;5213;53.548;9.930;2023-07-30T07:36:23;20.10;99.90
10336;DHT22;5213;53.548;9.930;2023-07-30T07:38:48;20.20;99.90
10336;DHT22;5213;53.548;9.930;2023-07-30T07:41:17;20.50;99.90
10336;DHT22;5213;53.548;9.930;2023-07-30T07:43:47;20.60;84.70
10336;DHT22;5213;53.548;9.930;2023-07-30T07:46:13;20.80;41.10
10336;DHT22;5213;53.548;9.930;2023-07-30T07:48:43;20.70;10.10
10336;DHT22;5213;53.548;9.930;2023-07-30T07:51:10;20.50;1.00
10336;DHT22;5213;53.548;9.930;2023-07-30T07:53:39;20.30;1.00
10336;DHT22;5213;53.548;9.930;2023-07-30T07:56:04;20.30;1.00
10336;DHT22;5213;53.548;9.930;2023-07-30T07:58:31;20.20;1.00
10336;DHT22;5213;53.548;9.930;2023-07-30T08:00:57;20.10;1.00
10336;DHT22;5213;53.548;9.930;2023-07-30T08:03:23;20.00;1.00
10336;DHT22;5213;53.548;9.930;2023-07-30T08:05:49;20.20;1.00
10336;DHT22;5213;53.548;9.930;2023-07-30T08:08:15;20.20;1.00
10336;DHT22;5213;53.548;9.930;2023-07-30T08:10:41;20.40;1.00
10336;DHT22;5213;53.548;9.930;2023-07-30T08:13:12;20.80;1.00
10336;DHT22;5213;53.548;9.930;2023-07-30T08:15:38;21.20;1.00
10336;DHT22;5213;53.548;9.930;2023-07-30T08:18:03;21.50;1.00
10336;DHT22;5213;53.548;9.930;2023-07-30T08:20:29;21.80;1.00
10336;DHT22;5213;53.548;9.930;2023-07-30T08:22:55;21.90;1.00
10336;DHT22;5213;53.548;9.930;2023-07-30T08:25:20;21.80;1.00
10336;DHT22;5213;53.548;9.930;2023-07-30T08:27:46;21.60;1.00
10336;DHT22;5213;53.548;9.930;2023-07-30T08:30:12;21.40;1.00
10336;DHT22;5213;53.548;9.930;2023-07-30T08:32:38;20.80;1.00
10336;DHT22;5213;53.548;9.930;2023-07-30T08:35:04;20.80;1.00
10336;DHT22;5213;53.548;9.930;2023-07-30T08:37:30;20.80;1.00
10336;DHT22;5213;53.548;9.930;2023-07-30T08:39:56;20.90;1.00
10336;DHT22;5213;53.548;9.930;2023-07-30T08:42:22;21.00;1.00
10336;DHT22;5213;53.548;9.930;2023-07-30T08:44:47;21.10;1.00
10336;DHT22;5213;53.548;9.930;2023-07-30T08:47:13;21.10;1.00
10336;DHT22;5213;53.548;9.930;2023-07-30T08:49:39;21.00;1.00
10336;DHT22;5213;53.548;9.930;2023-07-30T08:52:08;20.80;1.00
10336;DHT22;5213;53.548;9.930;2023-07-30T08:54:34;20.60;1.00
10336;DHT22;5213;53.548;9.930;2023-07-30T08:57:01;20.90;1.00
10336;DHT22;5213;53.548;9.930;2023-07-30T08:59:31;21.20;1.00
10336;DHT22;5213;53.548;9.930;2023-07-30T09:01:59;21.50;1.00
10336;DHT22;5213;53.548;9.930;2023-07-30T09:04:28;21.60;1.00
10336;DHT22;5213;53.548;9.930;2023-07-30T09:06:55;21.30;1.00
10336;DHT22;5213;53.548;9.930;2023-07-30T09:09:21;21.40;1.00
10336;DHT22;5213;53.548;9.930;2023-07-30T09:11:53;21.80;1.00
10336;DHT22;5213;53.548;9.930;2023-07-30T09:14:22;22.20;1.00
10336;DHT22;5213;53.548;9.930;2023-07-30T09:16:47;22.40;1.00
10336;DHT22;5213;53.548;9.930;2023-07-30T09:19:17;22.60;1.00
10336;DHT22;5213;53.548;9.930;2023-07-30T09:21:43;22.80;1.00
10336;DHT22;5213;53.548;9.930;2023-07-30T09:24:09;23.00;99.90
10336;DHT22;5213;53.548;9.930;2023-07-30T09:26:42;23.10;99.90
10336;DHT22;5213;53.548;9.930;2023-07-30T09:29:09;23.00;99.90
10336;DHT22;5213;53.548;9.930;2023-07-30T09:31:51;23.00;99.90
10336;DHT22;5213;53.548;9.930;2023-07-30T09:34:20;23.00;99.90
10336;DHT22;5213;53.548;9.930;2023-07-30T09:36:46;22.90;99.90
10336;DHT22;5213;53.548;9.930;2023-07-30T09:39:31;22.80;99.90
10336;DHT22;5213;53.548;9.930;2023-07-30T09:42:00;22.20;99.90
10336;DHT22;5213;53.548;9.930;2023-07-30T09:44:27;22.00;99.90
10336;DHT22;5213;53.548;9.930;2023-07-30T09:46:53;22.20;99.90
10336;DHT22;5213;53.548;9.930;2023-07-30T09:49:18;22.50;99.90
10336;DHT22;5213;53.548;9.930;2023-07-30T09:51:44;22.40;99.90
10336;DHT22;5213;53.548;9.930;2023-07-30T09:54:14;22.30;99.90
10336;DHT22;5213;53.548;9.930;2023-07-30T09:56:41;22.40;99.90
10336;DHT22;5213;53.548;9.930;2023-07-30T09:59:08;22.30;99.90
10336;DHT22;5213;53.548;9.930;2023-07-30T10:01:43;22.50;99.90
10336;DHT22;5213;53.548;9.930;2023-07-30T10:04:11;22.40;99.90
10336;DHT22;5213;53.548;9.930;2023-07-30T10:06:54;22.40;99.90
10336;DHT22;5213;53.548;9.930;2023-07-30T10:09:21;22.30;99.90
10336;DHT22;5213;53.548;9.930;2023-07-30T10:11:51;22.30;99.90
10336;DHT22;5213;53.548;9.930;2023-07-30T10:14:17;22.30;99.90
10336;DHT22;5213;53.548;9.930;2023-07-30T10:16:55;22.00;99.90
10336;DHT22;5213;53.548;9.930;2023-07-30T10:19:28;22.10;99.90
10336;DHT22;5213;53.548;9.930;2023-07-30T10:24:58;22.30;99.90
10336;DHT22;5213;53.548;9.930;2023-07-30T10:27:27;22.50;99.90
10336;DHT22;5213;53.548;9.930;2023-07-30T10:30:19;22.70;99.90
10336;DHT22;5213;53.548;9.930;2023-07-30T10:32:59;22.70;99.90
10336;DHT22;5213;53.548;9.930;2023-07-30T10:35:41;22.90;99.90
10336;DHT22;5213;53.548;9.930;2023-07-30T10:38:20;23.20;99.90
10336;DHT22;5213;53.548;9.930;2023-07-30T10:41:04;22.70;99.90
10336;DHT22;5213;53.548;9.930;2023-07-30T10:43:31;22.50;99.90
10336;DHT22;5213;53.548;9.930;2023-07-30T10:45:59;22.50;99.90
10336;DHT22;5213;53.548;9.930;2023-07-30T10:48:38;22.30;99.90
10336;DHT22;5213;53.548;9.930;2023-07-30T10:51:05;22.20;99.90
10336;DHT22;5213;53.548;9.930;2023-07-30T10:53:31;22.00;99.90
10336;DHT22;5213;53.548;9.930;2023-07-30T10:55:59;22.20;99.90
10336;DHT22;5213;53.548;9.930;2023-07-30T10:58:27;22.40;99.90
10336;DHT22;5213;53.548;9.930;2023-07-30T11:00:54;22.50;99.90
10336;DHT22;5213;53.548;9.930;2023-07-30T11:03:19;22.50;99.90
10336;DHT22;5213;53.548;9.930;2023-07-30T11:05:48;22.50;99.90
10336;DHT22;5213;53.548;9.930;2023-07-30T11:08:14;22.40;99.90
10336;DHT22;5213;53.548;9.930;2023-07-30T11:10:44;22.40;99.90
10336;DHT22;5213;53.548;9.930;2023-07-30T11:13:12;22.10;99.90
10336;DHT22;5213;53.548;9.930;2023-07-30T11:15:42;22.30;99.90
10336;DHT22;5213;53.548;9.930;2023-07-30T11:18:08;22.50;99.90
10336;DHT22;5213;53.548;9.930;2023-07-30T11:20:34;22.60;99.90
10336;DHT22;5213;53.548;9.930;2023-07-30T11:22:59;22.80;99.90
10336;DHT22;5213;53.548;9.930;2023-07-30T11:25:25;22.70;99.90
10336;DHT22;5213;53.548;9.930;2023-07-30T11:27:51;22.70;99.90
10336;DHT22;5213;53.548;9.930;2023-07-30T11:30:18;22.60;99.90
10336;DHT22;5213;53.548;9.930;2023-07-30T11:32:43;22.50;99.90
10336;DHT22;5213;53.548;9.930;2023-07-30T11:35:14;22.50;99.90
10336;DHT22;5213;53.548;9.930;2023-07-30T11:37:41;22.50;99.90
10336;DHT22;5213;53.548;9.930;2023-07-30T11:40:11;22.30;99.90
10336;DHT22;5213;53.548;9.930;2023-07-30T11:42:38;22.20;99.90
10336;DHT22;5213;53.548;9.930;2023-07-30T11:45:21;22.30;99.90
10336;DHT22;5213;53.548;9.930;2023-07-30T11:47:47;22.60;99.90
10336;DHT22;5213;53.548;9.930;2023-07-30T11:50:14;22.60;99.90
10336;DHT22;5213;53.548;9.930;2023-07-30T11:52:53;22.60;99.90
10336;DHT22;5213;53.548;9.930;2023-07-30T11:55:19;22.50;99.90
10336;DHT22;5213;53.548;9.930;2023-07-30T11:57:45;22.70;99.90
10336;DHT22;5213;53.548;9.930;2023-07-30T12:00:11;23.00;99.90
10336;DHT22;5213;53.548;9.930;2023-07-30T12:02:38;22.90;99.90
10336;DHT22;5213;53.548;9.930;2023-07-30T12:05:04;22.80;99.90
10336;DHT22;5213;53.548;9.930;2023-07-30T12:07:32;22.70;99.90
10336;DHT22;5213;53.548;9.930;2023-07-30T12:10:09;22.90;99.90
10336;DHT22;5213;53.548;9.930;2023-07-30T12:12:35;23.30;99.90
10336;DHT22;5213;53.548;9.930;2023-07-30T12:15:01;23.60;99.90
10336;DHT22;5213;53.548;9.930;2023-07-30T12:17:26;23.80;99.90
10336;DHT22;5213;53.548;9.930;2023-07-30T12:19:52;23.50;99.90
10336;DHT22;5213;53.548;9.930;2023-07-30T12:22:18;23.30;99.90
10336;DHT22;5213;53.548;9.930;2023-07-30T12:24:43;23.40;99.90
10336;DHT22;5213;53.548;9.930;2023-07-30T12:27:09;23.50;99.90
10336;DHT22;5213;53.548;9.930;2023-07-30T12:29:35;23.60;99.90
10336;DHT22;5213;53.548;9.930;2023-07-30T12:32:01;23.80;99.90
10336;DHT22;5213;53.548;9.930;2023-07-30T12:34:27;23.70;99.90
10336;DHT22;5213;53.548;9.930;2023-07-30T12:36:52;23.90;99.90
10336;DHT22;5213;53.548;9.930;2023-07-30T12:39:18;23.80;99.90
10336;DHT22;5213;53.548;9.930;2023-07-30T12:41:43;23.80;99.90
10336;DHT22;5213;53.548;9.930;2023-07-30T12:44:09;23.90;99.90
10336;DHT22;5213;53.548;9.930;2023-07-30T12:46:35;23.40;99.90
10336;DHT22;5213;53.548;9.930;2023-07-30T12:49:00;23.30;99.90
10336;DHT22;5213;53.548;9.930;2023-07-30T12:51:33;23.30;99.90
10336;DHT22;5213;53.548;9.930;2023-07-30T12:53:59;23.40;99.90
10336;DHT22;5213;53.548;9.930;2023-07-30T12:56:24;23.60;99.90
10336;DHT22;5213;53.548;9.930;2023-07-30T12:58:50;23.50;99.90
10336;DHT22;5213;53.548;9.930;2023-07-30T13:01:16;23.10;99.90
10336;DHT22;5213;53.548;9.930;2023-07-30T13:03:41;22.70;99.90
10336;DHT22;5213;53.548;9.930;2023-07-30T13:06:11;22.20;99.90
10336;DHT22;5213;53.548;9.930;2023-07-30T13:08:38;21.70;99.90
10336;DHT22;5213;53.548;9.930;2023-07-30T13:11:04;20.20;99.90
10336;DHT22;5213;53.548;9.930;2023-07-30T13:13:30;17.80;99.90
10336;DHT22;5213;53.548;9.930;2023-07-30T13:15:55;17.20;99.90
10336;DHT22;5213;53.548;9.930;2023-07-30T13:18:23;16.50;99.90
10336;DHT22;5213;53.548;9.930;2023-07-30T13:20:49;16.40;99.90
10336;DHT22;5213;53.548;9.930;2023-07-30T13:23:15;16.10;99.90
10336;DHT22;5213;53.548;9.930;2023-07-30T13:25:41;15.80;1.00
10336;DHT22;5213;53.548;9.930;2023-07-30T13:28:07;15.80;1.00
10336;DHT22;5213;53.548;9.930;2023-07-30T13:30:32;15.80;1.00
10336;DHT22;5213;53.548;9.930;2023-07-30T13:32:58;15.80;1.00
10336;DHT22;5213;53.548;9.930;2023-07-30T13:35:23;15.80;1.00
10336;DHT22;5213;53.548;9.930;2023-07-30T13:37:49;15.80;1.00
10336;DHT22;5213;53.548;9.930;2023-07-30T13:40:15;15.80;1.00
10336;DHT22;5213;53.548;9.930;2023-07-30T13:42:40;15.80;1.00
10336;DHT22;5213;53.548;9.930;2023-07-30T13:45:06;15.90;1.00
10336;DHT22;5213;53.548;9.930;2023-07-30T13:47:32;15.90;1.00
10336;DHT22;5213;53.548;9.930;2023-07-30T13:49:57;16.00;1.00
10336;DHT22;5213;53.548;9.930;2023-07-30T13:52:23;16.10;1.00
10336;DHT22;5213;53.548;9.930;2023-07-30T13:54:48;16.30;1.00
10336;DHT22;5213;53.548;9.930;2023-07-30T13:57:22;16.60;1.00
10336;DHT22;5213;53.548;9.930;2023-07-30T13:59:48;16.90;1.00
10336;DHT22;5213;53.548;9.930;2023-07-30T14:02:14;17.10;1.00
10336;DHT22;5213;53.548;9.930;2023-07-30T14:04:40;17.40;1.00
10336;DHT22;5213;53.548;9.930;2023-07-30T14:07:05;17.80;1.00
10336;DHT22;5213;53.548;9.930;2023-07-30T14:09:31;17.90;1.00
10336;DHT22;5213;53.548;9.930;2023-07-30T14:12:00;18.40;1.00
10336;DHT22;5213;53.548;9.930;2023-07-30T14:14:25;18.80;1.00
10336;DHT22;5213;53.548;9.930;2023-07-30T14:16:53;18.50;1.00
10336;DHT22;5213;53.548;9.930;2023-07-30T14:19:18;18.60;1.00
10336;DHT22;5213;53.548;9.930;2023-07-30T14:21:44;18.60;1.00
10336;DHT22;5213;53.548;9.930;2023-07-30T14:24:11;18.60;1.00
10336;DHT22;5213;53.548;9.930;2023-07-30T14:26:36;18.40;99.90
10336;DHT22;5213;53.548;9.930;2023-07-30T14:29:02;18.30;99.90
10336;DHT22;5213;53.548;9.930;2023-07-30T14:31:27;18.40;99.90
10336;DHT22;5213;53.548;9.930;2023-07-30T14:33:53;18.70;99.90
10336;DHT22;5213;53.548;9.930;2023-07-30T14:36:19;18.90;99.90
10336;DHT22;5213;53.548;9.930;2023-07-30T14:38:44;18.90;99.90
10336;DHT22;5213;53.548;9.930;2023-07-30T14:41:10;18.80;99.90
10336;DHT22;5213;53.548;9.930;2023-07-30T14:43:36;19.00;99.90
10336;DHT22;5213;53.548;9.930;2023-07-30T14:46:02;19.10;99.90
10336;DHT22;5213;53.548;9.930;2023-07-30T14:48:28;19.20;99.90
10336;DHT22;5213;53.548;9.930;2023-07-30T14:50:54;19.20;99.90
10336;DHT22;5213;53.548;9.930;2023-07-30T14:53:20;19.20;99.90
10336;DHT22;5213;53.548;9.930;2023-07-30T14:55:45;19.10;99.90
10336;DHT22;5213;53.548;9.930;2023-07-30T14:58:11;19.20;99.90
10336;DHT22;5213;53.548;9.930;2023-07-30T15:00:37;19.30;99.90
10336;DHT22;5213;53.548;9.930;2023-07-30T15:03:03;19.50;99.90
10336;DHT22;5213;53.548;9.930;2023-07-30T15:05:30;19.50;99.90
10336;DHT22;5213;53.548;9.930;2023-07-30T15:07:56;19.40;99.90
10336;DHT22;5213;53.548;9.930;2023-07-30T15:10:22;19.40;99.90
10336;DHT22;5213;53.548;9.930;2023-07-30T15:12:47;19.60;99.90
10336;DHT22;5213;53.548;9.930;2023-07-30T15:15:13;19.80;99.90
10336;DHT22;5213;53.548;9.930;2023-07-30T15:17:39;19.90;99.90
10336;DHT22;5213;53.548;9.930;2023-07-30T15:20:05;20.00;99.90
10336;DHT22;5213;53.548;9.930;2023-07-30T15:22:31;19.90;99.90
10336;DHT22;5213;53.548;9.930;2023-07-30T15:24:56;19.90;99.90
10336;DHT22;5213;53.548;9.930;2023-07-30T15:27:22;19.90;99.90
10336;DHT22;5213;53.548;9.930;2023-07-30T15:29:47;19.80;99.90
10336;DHT22;5213;53.548;9.930;2023-07-30T15:32:13;19.80;99.90
10336;DHT22;5213;53.548;9.930;2023-07-30T15:34:39;19.50;99.90
10336;DHT22;5213;53.548;9.930;2023-07-30T15:37:05;19.40;99.90
10336;DHT22;5213;53.548;9.930;2023-07-30T15:39:31;19.40;99.90
10336;DHT22;5213;53.548;9.930;2023-07-30T15:42:03;19.30;99.90
10336;DHT22;5213;53.548;9.930;2023-07-30T15:44:29;19.20;99.90
10336;DHT22;5213;53.548;9.930;2023-07-30T15:46:54;19.20;99.90
10336;DHT22;5213;53.548;9.930;2023-07-30T15:49:21;19.10;99.90
10336;DHT22;5213;53.548;9.930;2023-07-30T15:51:47;19.00;99.90